sensor_id;sensor_type;location;lat;lon;timestamp;P1;durP1;ratioP1;P2;durP2;ratioP2
12689;SDS011;6409;56.294;14.480;2023-07-16T00:01:16;0.30;;;0.30;;
12689;SDS011;6409;56.294;14.480;2023-07-16T00:03:43;0.30;;;0.30;;
12689;SDS011;6409;56.294;14.480;2023-07-16T00:06:10;0.30;;;0.30;;
12689;SDS011;6409;56.294;14.480;2023-07-16T00:08:37;0.30;;;0.30;;
12689;SDS011;6409;56.294;14.480;2023-07-16T00:11:06;0.20;;;0.20;;
12689;SDS011;6409;56.294;14.480;2023-07-16T00:13:35;0.20;;;0.20;;
12689;SDS011;6409;56.294;14.480;2023-07-16T00:16:02;0.30;;;0.30;;
12689;SDS011;6409;56.294;14.480;2023-07-16T00:18:30;0.20;;;0.20;;
12689;SDS011;6409;56.294;14.480;2023-07-16T00:20:56;0.20;;;0.20;;
12689;SDS011;6409;56.294;14.480;2023-07-16T00:23:23;0.27;;;0.27;;
12689;SDS011;6409;56.294;14.480;2023-07-16T00:25:50;0.30;;;0.30;;
12689;SDS011;6409;56.294;14.480;2023-07-16T00:28:17;0.20;;;0.20;;
12689;SDS011;6409;56.294;14.480;2023-07-16T00:30:45;0.30;;;0.30;;
12689;SDS011;6409;56.294;14.480;2023-07-16T00:33:13;0.20;;;0.20;;
12689;SDS011;6409;56.294;14.480;2023-07-16T00:35:46;0.20;;;0.20;;
12689;SDS011;6409;56.294;14.480;2023-07-16T00:38:13;0.30;;;0.30;;
12689;SDS011;6409;56.294;14.480;2023-07-16T00:40:40;0.30;;;0.30;;
12689;SDS011;6409;56.294;14.480;2023-07-16T00:43:07;0.20;;;0.20;;
12689;SDS011;6409;56.294;14.480;2023-07-16T00:45:34;0.20;;;0.20;;
12689;SDS011;6409;56.294;14.480;2023-07-16T00:48:02;0.20;;;0.20;;
12689;SDS011;6409;56.294;14.480;2023-07-16T00:50:31;0.20;;;0.20;;
12689;SDS011;6409;56.294;14.480;2023-07-16T00:53:04;0.30;;;0.30;;
12689;SDS011;6409;56.294;14.480;2023-07-16T00:55:31;0.20;;;0.20;;
12689;SDS011;6409;56.294;14.480;2023-07-16T00:58:00;0.20;;;0.20;;
12689;SDS011;6409;56.294;14.480;2023-07-16T01:00:28;0.20;;;0.20;;
12689;SDS011;6409;56.294;14.480;2023-07-16T01:02:55;0.30;;;0.30;;
12689;SDS011;6409;56.294;14.480;2023-07-16T01:05:23;0.20;;;0.20;;
12689;SDS011;6409;56.294;14.480;2023-07-16T01:07:52;0.30;;;0.30;;
12689;SDS011;6409;56.294;14.480;2023-07-16T01:10:23;0.30;;;0.30;;
12689;SDS011;6409;56.294;14.480;2023-07-16T01:12:53;0.20;;;0.20;;
12689;SDS011;6409;56.294;14.480;2023-07-16T01:15:20;0.30;;;0.30;;
12689;SDS011;6409;56.294;14.480;2023-07-16T01:17:47;0.30;;;0.30;;
12689;SDS011;6409;56.294;14.480;2023-07-16T01:20:14;0.30;;;0.30;;
12689;SDS011;6409;56.294;14.480;2023-07-16T01:22:52;0.30;;;0.30;;
12689;SDS011;6409;56.294;14.480;2023-07-16T01:25:48;0.30;;;0.30;;
12689;SDS011;6409;56.294;14.480;2023-07-16T01:28:44;0.30;;;0.30;;
12689;SDS011;6409;56.294;14.480;2023-07-16T01:31:31;0.30;;;0.30;;
12689;SDS011;6409;56.294;14.480;2023-07-16T01:33:58;0.30;;;0.30;;
12689;SDS011;6409;56.294;14.480;2023-07-16T01:36:25;0.40;;;0.40;;
12689;SDS011;6409;56.294;14.480;2023-07-16T01:38:53;0.40;;;0.40;;
12689;SDS011;6409;56.294;14.480;2023-07-16T01:41:20;0.20;;;0.20;;
12689;SDS011;6409;56.294;14.480;2023-07-16T01:43:47;0.20;;;0.20;;
12689;SDS011;6409;56.294;14.480;2023-07-16T01:46:14;0.30;;;0.30;;
12689;SDS011;6409;56.294;14.480;2023-07-16T01:48:42;0.20;;;0.20;;
12689;SDS011;6409;56.294;14.480;2023-07-16T01:51:09;0.20;;;0.20;;
12689;SDS011;6409;56.294;14.480;2023-07-16T01:53:39;0.20;;;0.20;;
12689;SDS011;6409;56.294;14.480;2023-07-16T01:56:06;0.20;;;0.20;;
12689;SDS011;6409;56.294;14.480;2023-07-16T01:58:32;0.20;;;0.20;;
12689;SDS011;6409;56.294;14.480;2023-07-16T02:00:59;0.20;;;0.20;;
12689;SDS011;6409;56.294;14.480;2023-07-16T02:03:26;0.30;;;0.30;;
12689;SDS011;6409;56.294;14.480;2023-07-16T02:05:55;0.30;;;0.30;;
12689;SDS011;6409;56.294;14.480;2023-07-16T02:08:22;0.20;;;0.20;;
12689;SDS011;6409;56.294;14.480;2023-07-16T02:10:48;0.20;;;0.20;;
12689;SDS011;6409;56.294;14.480;2023-07-16T02:13:15;0.20;;;0.20;;
12689;SDS011;6409;56.294;14.480;2023-07-16T02:15:42;0.20;;;0.20;;
12689;SDS011;6409;56.294;14.480;2023-07-16T02:18:09;0.30;;;0.30;;
12689;SDS011;6409;56.294;14.480;2023-07-16T02:20:37;0.20;;;0.20;;
12689;SDS011;6409;56.294;14.480;2023-07-16T02:23:05;0.30;;;0.30;;
12689;SDS011;6409;56.294;14.480;2023-07-16T02:25:32;0.20;;;0.20;;
12689;SDS011;6409;56.294;14.480;2023-07-16T02:27:59;0.20;;;0.20;;
12689;SDS011;6409;56.294;14.480;2023-07-16T02:30:26;0.20;;;0.20;;
12689;SDS011;6409;56.294;14.480;2023-07-16T02:32:53;0.30;;;0.30;;
12689;SDS011;6409;56.294;14.480;2023-07-16T02:35:20;0.20;;;0.20;;
12689;SDS011;6409;56.294;14.480;2023-07-16T02:37:47;0.23;;;0.23;;
12689;SDS011;6409;56.294;14.480;2023-07-16T02:40:15;0.20;;;0.20;;
12689;SDS011;6409;56.294;14.480;2023-07-16T02:42:42;0.20;;;0.20;;
12689;SDS011;6409;56.294;14.480;2023-07-16T02:45:09;0.20;;;0.20;;
12689;SDS011;6409;56.294;14.480;2023-07-16T02:47:36;0.20;;;0.20;;
12689;SDS011;6409;56.294;14.480;2023-07-16T02:50:03;0.30;;;0.30;;
12689;SDS011;6409;56.294;14.480;2023-07-16T02:52:31;0.30;;;0.30;;
12689;SDS011;6409;56.294;14.480;2023-07-16T02:54:58;0.30;;;0.30;;
12689;SDS011;6409;56.294;14.480;2023-07-16T02:57:26;0.30;;;0.30;;
12689;SDS011;6409;56.294;14.480;2023-07-16T02:59:53;0.30;;;0.30;;
12689;SDS011;6409;56.294;14.480;2023-07-16T03:02:20;0.20;;;0.20;;
12689;SDS011;6409;56.294;14.480;2023-07-16T03:04:47;0.30;;;0.30;;
12689;SDS011;6409;56.294;14.480;2023-07-16T03:07:13;0.20;;;0.20;;
12689;SDS011;6409;56.294;14.480;2023-07-16T03:09:42;0.30;;;0.30;;
12689;SDS011;6409;56.294;14.480;2023-07-16T03:12:08;0.30;;;0.30;;
12689;SDS011;6409;56.294;14.480;2023-07-16T03:14:37;0.20;;;0.20;;
12689;SDS011;6409;56.294;14.480;2023-07-16T03:17:04;0.30;;;0.30;;
12689;SDS011;6409;56.294;14.480;2023-07-16T03:19:32;0.30;;;0.30;;
12689;SDS011;6409;56.294;14.480;2023-07-16T03:21:59;0.30;;;0.30;;
12689;SDS011;6409;56.294;14.480;2023-07-16T03:24:25;0.20;;;0.20;;
12689;SDS011;6409;56.294;14.480;2023-07-16T03:26:52;0.20;;;0.20;;
12689;SDS011;6409;56.294;14.480;2023-07-16T03:29:19;0.20;;;0.20;;
12689;SDS011;6409;56.294;14.480;2023-07-16T03:31:47;0.20;;;0.20;;
12689;SDS011;6409;56.294;14.480;2023-07-16T03:34:14;0.20;;;0.20;;
12689;SDS011;6409;56.294;14.480;2023-07-16T03:36:41;0.20;;;0.20;;
12689;SDS011;6409;56.294;14.480;2023-07-16T03:39:08;0.20;;;0.20;;
12689;SDS011;6409;56.294;14.480;2023-07-16T03:41:35;0.20;;;0.20;;
12689;SDS011;6409;56.294;14.480;2023-07-16T03:44:02;0.23;;;0.23;;
12689;SDS011;6409;56.294;14.480;2023-07-16T03:46:29;0.30;;;0.30;;
12689;SDS011;6409;56.294;14.480;2023-07-16T03:48:57;0.30;;;0.30;;
12689;SDS011;6409;56.294;14.480;2023-07-16T03:51:24;0.20;;;0.20;;
12689;SDS011;6409;56.294;14.480;2023-07-16T03:53:51;0.20;;;0.20;;
12689;SDS011;6409;56.294;14.480;2023-07-16T03:56:18;0.30;;;0.30;;
12689;SDS011;6409;56.294;14.480;2023-07-16T03:58:45;0.30;;;0.30;;
12689;SDS011;6409;56.294;14.480;2023-07-16T04:01:12;0.20;;;0.20;;
12689;SDS011;6409;56.294;14.480;2023-07-16T04:03:39;0.20;;;0.20;;
12689;SDS011;6409;56.294;14.480;2023-07-16T04:06:08;0.30;;;0.30;;
12689;SDS011;6409;56.294;14.480;2023-07-16T04:08:35;0.20;;;0.20;;
12689;SDS011;6409;56.294;14.480;2023-07-16T04:11:02;0.20;;;0.20;;
12689;SDS011;6409;56.294;14.480;2023-07-16T04:13:30;0.20;;;0.20;;
12689;SDS011;6409;56.294;14.480;2023-07-16T04:15:56;0.20;;;0.20;;
12689;SDS011;6409;56.294;14.480;2023-07-16T04:18:23;0.20;;;0.20;;
12689;SDS011;6409;56.294;14.480;2023-07-16T04:20:51;0.20;;;0.20;;
12689;SDS011;6409;56.294;14.480;2023-07-16T04:23:19;0.20;;;0.20;;
12689;SDS011;6409;56.294;14.480;2023-07-16T04:25:46;0.30;;;0.30;;
12689;SDS011;6409;56.294;14.480;2023-07-16T04:28:13;0.30;;;0.30;;
12689;SDS011;6409;56.294;14.480;2023-07-16T04:30:40;0.30;;;0.30;;
12689;SDS011;6409;56.294;14.480;2023-07-16T04:33:07;0.30;;;0.30;;
12689;SDS011;6409;56.294;14.480;2023-07-16T04:35:34;0.30;;;0.30;;
12689;SDS011;6409;56.294;14.480;2023-07-16T04:38:01;0.30;;;0.30;;
12689;SDS011;6409;56.294;14.480;2023-07-16T04:40:30;0.30;;;0.30;;
12689;SDS011;6409;56.294;14.480;2023-07-16T04:42:57;0.30;;;0.30;;
12689;SDS011;6409;56.294;14.480;2023-07-16T04:45:24;0.30;;;0.30;;
12689;SDS011;6409;56.294;14.480;2023-07-16T04:47:51;0.20;;;0.20;;
12689;SDS011;6409;56.294;14.480;2023-07-16T04:50:18;0.20;;;0.20;;
12689;SDS011;6409;56.294;14.480;2023-07-16T04:52:45;0.30;;;0.30;;
12689;SDS011;6409;56.294;14.480;2023-07-16T04:55:12;0.20;;;0.20;;
12689;SDS011;6409;56.294;14.480;2023-07-16T04:57:40;0.20;;;0.20;;
12689;SDS011;6409;56.294;14.480;2023-07-16T05:00:07;0.20;;;0.20;;
12689;SDS011;6409;56.294;14.480;2023-07-16T05:02:35;0.20;;;0.20;;
12689;SDS011;6409;56.294;14.480;2023-07-16T05:05:02;0.20;;;0.20;;
12689;SDS011;6409;56.294;14.480;2023-07-16T05:07:29;0.20;;;0.20;;
12689;SDS011;6409;56.294;14.480;2023-07-16T05:09:56;0.20;;;0.20;;
12689;SDS011;6409;56.294;14.480;2023-07-16T05:12:22;0.27;;;0.27;;
12689;SDS011;6409;56.294;14.480;2023-07-16T05:14:51;0.20;;;0.20;;
12689;SDS011;6409;56.294;14.480;2023-07-16T05:17:18;0.20;;;0.20;;
12689;SDS011;6409;56.294;14.480;2023-07-16T05:19:45;0.20;;;0.20;;
12689;SDS011;6409;56.294;14.480;2023-07-16T05:22:12;0.20;;;0.20;;
12689;SDS011;6409;56.294;14.480;2023-07-16T05:24:38;0.20;;;0.20;;
12689;SDS011;6409;56.294;14.480;2023-07-16T05:27:05;0.20;;;0.20;;
12689;SDS011;6409;56.294;14.480;2023-07-16T05:29:32;0.20;;;0.20;;
12689;SDS011;6409;56.294;14.480;2023-07-16T05:32:01;0.20;;;0.20;;
12689;SDS011;6409;56.294;14.480;2023-07-16T05:34:28;0.20;;;0.20;;
12689;SDS011;6409;56.294;14.480;2023-07-16T05:36:55;0.20;;;0.20;;
12689;SDS011;6409;56.294;14.480;2023-07-16T05:39:22;0.20;;;0.20;;
12689;SDS011;6409;56.294;14.480;2023-07-16T05:41:49;0.20;;;0.20;;
12689;SDS011;6409;56.294;14.480;2023-07-16T05:44:16;0.20;;;0.20;;
12689;SDS011;6409;56.294;14.480;2023-07-16T05:46:43;0.20;;;0.20;;
12689;SDS011;6409;56.294;14.480;2023-07-16T05:49:11;0.20;;;0.20;;
12689;SDS011;6409;56.294;14.480;2023-07-16T05:51:39;0.20;;;0.20;;
12689;SDS011;6409;56.294;14.480;2023-07-16T05:54:06;0.20;;;0.20;;
12689;SDS011;6409;56.294;14.480;2023-07-16T05:56:33;0.20;;;0.20;;
12689;SDS011;6409;56.294;14.480;2023-07-16T05:59:00;0.30;;;0.30;;
12689;SDS011;6409;56.294;14.480;2023-07-16T06:01:27;0.20;;;0.20;;
12689;SDS011;6409;56.294;14.480;2023-07-16T06:03:54;0.23;;;0.23;;
12689;SDS011;6409;56.294;14.480;2023-07-16T06:06:22;0.20;;;0.20;;
12689;SDS011;6409;56.294;14.480;2023-07-16T06:08:49;0.20;;;0.20;;
12689;SDS011;6409;56.294;14.480;2023-07-16T06:11:16;0.20;;;0.20;;
12689;SDS011;6409;56.294;14.480;2023-07-16T06:13:43;0.30;;;0.30;;
12689;SDS011;6409;56.294;14.480;2023-07-16T06:16:10;0.20;;;0.20;;
12689;SDS011;6409;56.294;14.480;2023-07-16T06:18:37;0.30;;;0.30;;
12689;SDS011;6409;56.294;14.480;2023-07-16T06:21:04;0.27;;;0.27;;
12689;SDS011;6409;56.294;14.480;2023-07-16T06:23:32;0.20;;;0.20;;
12689;SDS011;6409;56.294;14.480;2023-07-16T06:25:59;0.20;;;0.20;;
12689;SDS011;6409;56.294;14.480;2023-07-16T06:28:26;0.30;;;0.30;;
12689;SDS011;6409;56.294;14.480;2023-07-16T06:30:53;0.20;;;0.20;;
12689;SDS011;6409;56.294;14.480;2023-07-16T06:33:20;0.20;;;0.20;;
12689;SDS011;6409;56.294;14.480;2023-07-16T06:35:47;0.30;;;0.30;;
12689;SDS011;6409;56.294;14.480;2023-07-16T06:38:14;0.30;;;0.30;;
12689;SDS011;6409;56.294;14.480;2023-07-16T06:40:46;0.27;;;0.27;;
12689;SDS011;6409;56.294;14.480;2023-07-16T06:43:14;0.20;;;0.20;;
12689;SDS011;6409;56.294;14.480;2023-07-16T06:45:41;0.20;;;0.20;;
12689;SDS011;6409;56.294;14.480;2023-07-16T06:48:08;0.30;;;0.30;;
12689;SDS011;6409;56.294;14.480;2023-07-16T06:50:35;0.30;;;0.30;;
12689;SDS011;6409;56.294;14.480;2023-07-16T06:53:02;0.30;;;0.30;;
12689;SDS011;6409;56.294;14.480;2023-07-16T06:55:29;0.27;;;0.27;;
12689;SDS011;6409;56.294;14.480;2023-07-16T06:57:57;0.20;;;0.20;;
12689;SDS011;6409;56.294;14.480;2023-07-16T07:00:24;0.20;;;0.20;;
12689;SDS011;6409;56.294;14.480;2023-07-16T07:02:51;0.20;;;0.20;;
12689;SDS011;6409;56.294;14.480;2023-07-16T07:05:18;0.20;;;0.20;;
12689;SDS011;6409;56.294;14.480;2023-07-16T07:07:45;0.30;;;0.30;;
12689;SDS011;6409;56.294;14.480;2023-07-16T07:10:12;0.20;;;0.20;;
12689;SDS011;6409;56.294;14.480;2023-07-16T07:12:39;0.30;;;0.30;;
12689;SDS011;6409;56.294;14.480;2023-07-16T07:15:08;0.30;;;0.30;;
12689;SDS011;6409;56.294;14.480;2023-07-16T07:17:35;0.30;;;0.30;;
12689;SDS011;6409;56.294;14.480;2023-07-16T07:20:02;0.30;;;0.30;;
12689;SDS011;6409;56.294;14.480;2023-07-16T07:22:30;0.30;;;0.30;;
12689;SDS011;6409;56.294;14.480;2023-07-16T07:24:57;0.30;;;0.30;;
12689;SDS011;6409;56.294;14.480;2023-07-16T07:27:24;0.30;;;0.30;;
12689;SDS011;6409;56.294;14.480;2023-07-16T07:29:51;0.30;;;0.30;;
12689;SDS011;6409;56.294;14.480;2023-07-16T07:32:21;0.40;;;0.40;;
12689;SDS011;6409;56.294;14.480;2023-07-16T07:34:48;0.30;;;0.30;;
12689;SDS011;6409;56.294;14.480;2023-07-16T07:37:15;0.20;;;0.20;;
12689;SDS011;6409;56.294;14.480;2023-07-16T07:39:42;0.20;;;0.20;;
12689;SDS011;6409;56.294;14.480;2023-07-16T07:42:12;0.20;;;0.20;;
12689;SDS011;6409;56.294;14.480;2023-07-16T07:44:39;0.20;;;0.20;;
12689;SDS011;6409;56.294;14.480;2023-07-16T07:47:06;0.20;;;0.20;;
12689;SDS011;6409;56.294;14.480;2023-07-16T07:49:35;0.20;;;0.20;;
12689;SDS011;6409;56.294;14.480;2023-07-16T07:52:02;0.30;;;0.30;;
12689;SDS011;6409;56.294;14.480;2023-07-16T07:54:31;0.20;;;0.20;;
12689;SDS011;6409;56.294;14.480;2023-07-16T07:57:00;0.20;;;0.20;;
12689;SDS011;6409;56.294;14.480;2023-07-16T07:59:27;0.20;;;0.20;;
12689;SDS011;6409;56.294;14.480;2023-07-16T08:01:54;0.20;;;0.20;;
12689;SDS011;6409;56.294;14.480;2023-07-16T08:04:21;0.20;;;0.20;;
12689;SDS011;6409;56.294;14.480;2023-07-16T08:06:50;0.30;;;0.30;;
12689;SDS011;6409;56.294;14.480;2023-07-16T08:09:19;0.30;;;0.30;;
12689;SDS011;6409;56.294;14.480;2023-07-16T08:11:46;0.27;;;0.27;;
12689;SDS011;6409;56.294;14.480;2023-07-16T08:14:13;0.40;;;0.40;;
12689;SDS011;6409;56.294;14.480;2023-07-16T08:16:40;0.30;;;0.30;;
12689;SDS011;6409;56.294;14.480;2023-07-16T08:19:06;0.40;;;0.40;;
12689;SDS011;6409;56.294;14.480;2023-07-16T08:21:34;0.40;;;0.40;;
12689;SDS011;6409;56.294;14.480;2023-07-16T08:24:04;0.40;;;0.40;;
12689;SDS011;6409;56.294;14.480;2023-07-16T08:26:31;0.40;;;0.40;;
12689;SDS011;6409;56.294;14.480;2023-07-16T08:28:58;0.50;;;0.50;;
12689;SDS011;6409;56.294;14.480;2023-07-16T08:31:26;0.50;;;0.50;;
12689;SDS011;6409;56.294;14.480;2023-07-16T08:33:53;0.20;;;0.20;;
12689;SDS011;6409;56.294;14.480;2023-07-16T08:36:20;0.30;;;0.30;;
12689;SDS011;6409;56.294;14.480;2023-07-16T08:38:47;0.30;;;0.30;;
12689;SDS011;6409;56.294;14.480;2023-07-16T08:41:15;0.30;;;0.30;;
12689;SDS011;6409;56.294;14.480;2023-07-16T08:43:42;0.30;;;0.30;;
12689;SDS011;6409;56.294;14.480;2023-07-16T08:46:10;0.30;;;0.30;;
12689;SDS011;6409;56.294;14.480;2023-07-16T08:48:37;0.30;;;0.30;;
12689;SDS011;6409;56.294;14.480;2023-07-16T08:51:04;0.30;;;0.30;;
12689;SDS011;6409;56.294;14.480;2023-07-16T08:53:33;0.40;;;0.40;;
12689;SDS011;6409;56.294;14.480;2023-07-16T08:55:59;0.30;;;0.30;;
12689;SDS011;6409;56.294;14.480;2023-07-16T08:58:31;0.37;;;0.37;;
12689;SDS011;6409;56.294;14.480;2023-07-16T09:00:59;0.40;;;0.40;;
12689;SDS011;6409;56.294;14.480;2023-07-16T09:03:26;0.50;;;0.50;;
12689;SDS011;6409;56.294;14.480;2023-07-16T09:05:53;0.40;;;0.40;;
12689;SDS011;6409;56.294;14.480;2023-07-16T09:08:20;0.50;;;0.50;;
12689;SDS011;6409;56.294;14.480;2023-07-16T09:10:53;0.50;;;0.50;;
12689;SDS011;6409;56.294;14.480;2023-07-16T09:13:20;0.60;;;0.60;;
12689;SDS011;6409;56.294;14.480;2023-07-16T09:15:51;0.60;;;0.60;;
12689;SDS011;6409;56.294;14.480;2023-07-16T09:18:19;0.60;;;0.60;;
12689;SDS011;6409;56.294;14.480;2023-07-16T09:20:47;0.60;;;0.60;;
12689;SDS011;6409;56.294;14.480;2023-07-16T09:23:16;0.60;;;0.60;;
12689;SDS011;6409;56.294;14.480;2023-07-16T09:25:43;0.60;;;0.60;;
12689;SDS011;6409;56.294;14.480;2023-07-16T09:28:10;0.60;;;0.60;;
12689;SDS011;6409;56.294;14.480;2023-07-16T09:30:38;0.60;;;0.60;;
12689;SDS011;6409;56.294;14.480;2023-07-16T09:33:12;0.60;;;0.60;;
12689;SDS011;6409;56.294;14.480;2023-07-16T09:35:40;0.70;;;0.70;;
12689;SDS011;6409;56.294;14.480;2023-07-16T09:38:07;0.70;;;0.70;;
12689;SDS011;6409;56.294;14.480;2023-07-16T09:40:35;0.73;;;0.73;;
12689;SDS011;6409;56.294;14.480;2023-07-16T09:43:02;0.80;;;0.80;;
12689;SDS011;6409;56.294;14.480;2023-07-16T09:45:29;0.70;;;0.70;;
12689;SDS011;6409;56.294;14.480;2023-07-16T09:47:56;0.70;;;0.70;;
12689;SDS011;6409;56.294;14.480;2023-07-16T09:50:25;0.80;;;0.80;;
12689;SDS011;6409;56.294;14.480;2023-07-16T09:52:54;0.90;;;0.90;;
12689;SDS011;6409;56.294;14.480;2023-07-16T09:55:22;0.80;;;0.80;;
12689;SDS011;6409;56.294;14.480;2023-07-16T09:57:51;0.73;;;0.73;;
12689;SDS011;6409;56.294;14.480;2023-07-16T10:00:21;0.82;;;0.82;;
12689;SDS011;6409;56.294;14.480;2023-07-16T10:02:49;0.90;;;0.90;;
12689;SDS011;6409;56.294;14.480;2023-07-16T10:05:18;0.93;;;0.93;;
12689;SDS011;6409;56.294;14.480;2023-07-16T10:07:50;0.90;;;0.90;;
12689;SDS011;6409;56.294;14.480;2023-07-16T10:10:25;0.90;;;0.90;;
12689;SDS011;6409;56.294;14.480;2023-07-16T10:12:55;1.00;;;1.00;;
12689;SDS011;6409;56.294;14.480;2023-07-16T10:15:24;1.00;;;1.00;;
12689;SDS011;6409;56.294;14.480;2023-07-16T10:17:52;0.90;;;0.90;;
12689;SDS011;6409;56.294;14.480;2023-07-16T10:20:27;1.00;;;1.00;;
12689;SDS011;6409;56.294;14.480;2023-07-16T10:22:56;1.00;;;1.00;;
12689;SDS011;6409;56.294;14.480;2023-07-16T10:25:24;1.00;;;1.00;;
12689;SDS011;6409;56.294;14.480;2023-07-16T10:27:53;1.00;;;1.00;;
12689;SDS011;6409;56.294;14.480;2023-07-16T10:30:20;1.40;;;1.40;;
12689;SDS011;6409;56.294;14.480;2023-07-16T10:32:50;1.40;;;1.40;;
12689;SDS011;6409;56.294;14.480;2023-07-16T10:35:18;1.30;;;1.30;;
12689;SDS011;6409;56.294;14.480;2023-07-16T10:37:45;1.20;;;1.20;;
12689;SDS011;6409;56.294;14.480;2023-07-16T10:40:14;1.40;;;1.40;;
12689;SDS011;6409;56.294;14.480;2023-07-16T10:42:41;1.60;;;1.60;;
12689;SDS011;6409;56.294;14.480;2023-07-16T10:45:09;1.80;;;1.80;;
12689;SDS011;6409;56.294;14.480;2023-07-16T10:47:37;1.90;;;1.90;;
12689;SDS011;6409;56.294;14.480;2023-07-16T10:50:07;1.20;;;1.20;;
12689;SDS011;6409;56.294;14.480;2023-07-16T10:52:36;1.20;;;1.20;;
12689;SDS011;6409;56.294;14.480;2023-07-16T10:55:04;1.30;;;1.30;;
12689;SDS011;6409;56.294;14.480;2023-07-16T10:57:32;1.40;;;1.40;;
12689;SDS011;6409;56.294;14.480;2023-07-16T10:59:59;1.40;;;1.40;;
12689;SDS011;6409;56.294;14.480;2023-07-16T11:02:26;1.60;;;1.60;;
12689;SDS011;6409;56.294;14.480;2023-07-16T11:04:53;1.80;;;1.80;;
12689;SDS011;6409;56.294;14.480;2023-07-16T11:07:22;1.80;;;1.80;;
12689;SDS011;6409;56.294;14.480;2023-07-16T11:09:51;1.90;;;1.90;;
12689;SDS011;6409;56.294;14.480;2023-07-16T11:12:20;2.00;;;2.00;;
12689;SDS011;6409;56.294;14.480;2023-07-16T11:14:50;2.00;;;2.00;;
12689;SDS011;6409;56.294;14.480;2023-07-16T11:17:18;2.10;;;2.10;;
12689;SDS011;6409;56.294;14.480;2023-07-16T11:19:48;2.00;;;2.00;;
12689;SDS011;6409;56.294;14.480;2023-07-16T11:22:16;2.10;;;2.10;;
12689;SDS011;6409;56.294;14.480;2023-07-16T11:24:43;2.00;;;2.00;;
12689;SDS011;6409;56.294;14.480;2023-07-16T11:27:15;2.20;;;2.20;;
12689;SDS011;6409;56.294;14.480;2023-07-16T11:29:46;2.00;;;2.00;;
12689;SDS011;6409;56.294;14.480;2023-07-16T11:32:25;2.03;;;2.03;;
12689;SDS011;6409;56.294;14.480;2023-07-16T11:34:53;2.10;;;2.10;;
12689;SDS011;6409;56.294;14.480;2023-07-16T11:37:20;2.10;;;2.10;;
12689;SDS011;6409;56.294;14.480;2023-07-16T11:39:47;2.00;;;2.00;;
12689;SDS011;6409;56.294;14.480;2023-07-16T11:42:14;2.00;;;2.00;;
12689;SDS011;6409;56.294;14.480;2023-07-16T11:44:48;2.10;;;2.10;;
12689;SDS011;6409;56.294;14.480;2023-07-16T11:47:16;2.00;;;2.00;;
12689;SDS011;6409;56.294;14.480;2023-07-16T11:49:43;2.10;;;2.10;;
12689;SDS011;6409;56.294;14.480;2023-07-16T11:52:10;2.20;;;2.20;;
12689;SDS011;6409;56.294;14.480;2023-07-16T11:54:37;2.30;;;2.30;;
12689;SDS011;6409;56.294;14.480;2023-07-16T11:57:04;2.20;;;2.20;;
12689;SDS011;6409;56.294;14.480;2023-07-16T11:59:32;2.30;;;2.30;;
12689;SDS011;6409;56.294;14.480;2023-07-16T12:02:00;2.10;;;2.10;;
12689;SDS011;6409;56.294;14.480;2023-07-16T12:04:29;2.33;;;2.30;;
12689;SDS011;6409;56.294;14.480;2023-07-16T12:06:56;2.20;;;2.20;;
12689;SDS011;6409;56.294;14.480;2023-07-16T12:09:23;2.40;;;2.30;;
12689;SDS011;6409;56.294;14.480;2023-07-16T12:11:50;2.42;;;2.33;;
12689;SDS011;6409;56.294;14.480;2023-07-16T12:14:17;2.35;;;2.30;;
12689;SDS011;6409;56.294;14.480;2023-07-16T12:16:43;2.20;;;2.20;;
12689;SDS011;6409;56.294;14.480;2023-07-16T12:19:10;2.67;;;2.58;;
12689;SDS011;6409;56.294;14.480;2023-07-16T12:21:39;2.90;;;2.80;;
12689;SDS011;6409;56.294;14.480;2023-07-16T12:24:06;2.83;;;2.72;;
12689;SDS011;6409;56.294;14.480;2023-07-16T12:26:33;2.70;;;2.60;;
12689;SDS011;6409;56.294;14.480;2023-07-16T12:29:00;2.78;;;2.67;;
12689;SDS011;6409;56.294;14.480;2023-07-16T12:31:29;2.90;;;2.80;;
12689;SDS011;6409;56.294;14.480;2023-07-16T12:33:56;3.10;;;3.00;;
12689;SDS011;6409;56.294;14.480;2023-07-16T12:36:23;3.17;;;3.08;;
12689;SDS011;6409;56.294;14.480;2023-07-16T12:38:51;2.40;;;2.30;;
12689;SDS011;6409;56.294;14.480;2023-07-16T12:41:18;2.20;;;2.20;;
12689;SDS011;6409;56.294;14.480;2023-07-16T12:43:45;2.00;;;2.00;;
12689;SDS011;6409;56.294;14.480;2023-07-16T12:46:12;2.10;;;2.10;;
12689;SDS011;6409;56.294;14.480;2023-07-16T12:48:39;2.30;;;2.30;;
12689;SDS011;6409;56.294;14.480;2023-07-16T12:51:06;2.15;;;2.15;;
12689;SDS011;6409;56.294;14.480;2023-07-16T12:53:33;2.20;;;2.20;;
12689;SDS011;6409;56.294;14.480;2023-07-16T12:56:01;2.20;;;2.20;;
12689;SDS011;6409;56.294;14.480;2023-07-16T12:58:28;2.33;;;2.30;;
12689;SDS011;6409;56.294;14.480;2023-07-16T13:00:55;2.25;;;2.25;;
12689;SDS011;6409;56.294;14.480;2023-07-16T13:03:22;2.20;;;2.20;;
12689;SDS011;6409;56.294;14.480;2023-07-16T13:09:12;2.40;;;2.30;;
12689;SDS011;6409;56.294;14.480;2023-07-16T13:11:41;2.50;;;2.40;;
12689;SDS011;6409;56.294;14.480;2023-07-16T13:14:09;2.35;;;2.30;;
12689;SDS011;6409;56.294;14.480;2023-07-16T13:16:36;2.58;;;2.47;;
12689;SDS011;6409;56.294;14.480;2023-07-16T13:19:03;2.50;;;2.40;;
12689;SDS011;6409;56.294;14.480;2023-07-16T13:21:30;2.50;;;2.40;;
12689;SDS011;6409;56.294;14.480;2023-07-16T13:23:57;2.60;;;2.50;;
12689;SDS011;6409;56.294;14.480;2023-07-16T13:26:24;2.70;;;2.60;;
12689;SDS011;6409;56.294;14.480;2023-07-16T13:28:52;2.60;;;2.50;;
12689;SDS011;6409;56.294;14.480;2023-07-16T13:31:19;2.70;;;2.60;;
12689;SDS011;6409;56.294;14.480;2023-07-16T13:33:46;2.70;;;2.60;;
12689;SDS011;6409;56.294;14.480;2023-07-16T13:36:12;2.70;;;2.60;;
12689;SDS011;6409;56.294;14.480;2023-07-16T13:38:40;2.50;;;2.40;;
12689;SDS011;6409;56.294;14.480;2023-07-16T13:41:07;2.70;;;2.60;;
12689;SDS011;6409;56.294;14.480;2023-07-16T13:43:34;2.70;;;2.60;;
12689;SDS011;6409;56.294;14.480;2023-07-16T13:46:03;2.65;;;2.55;;
12689;SDS011;6409;56.294;14.480;2023-07-16T13:48:30;2.60;;;2.50;;
12689;SDS011;6409;56.294;14.480;2023-07-16T13:50:57;2.60;;;2.50;;
12689;SDS011;6409;56.294;14.480;2023-07-16T13:53:24;2.70;;;2.60;;
12689;SDS011;6409;56.294;14.480;2023-07-16T13:55:50;2.50;;;2.40;;
12689;SDS011;6409;56.294;14.480;2023-07-16T13:58:18;3.00;;;2.90;;
12689;SDS011;6409;56.294;14.480;2023-07-16T14:00:45;3.10;;;3.00;;
12689;SDS011;6409;56.294;14.480;2023-07-16T14:03:13;3.10;;;3.00;;
12689;SDS011;6409;56.294;14.480;2023-07-16T14:05:40;3.20;;;3.10;;
12689;SDS011;6409;56.294;14.480;2023-07-16T14:08:07;3.17;;;3.08;;
12689;SDS011;6409;56.294;14.480;2023-07-16T14:10:34;3.20;;;3.10;;
12689;SDS011;6409;56.294;14.480;2023-07-16T14:13:01;3.10;;;3.00;;
12689;SDS011;6409;56.294;14.480;2023-07-16T14:15:28;3.30;;;3.20;;
12689;SDS011;6409;56.294;14.480;2023-07-16T14:17:55;3.53;;;3.42;;
12689;SDS011;6409;56.294;14.480;2023-07-16T14:20:23;2.70;;;2.60;;
12689;SDS011;6409;56.294;14.480;2023-07-16T14:22:50;2.80;;;2.70;;
12689;SDS011;6409;56.294;14.480;2023-07-16T14:25:17;2.70;;;2.60;;
12689;SDS011;6409;56.294;14.480;2023-07-16T14:27:44;2.60;;;2.50;;
12689;SDS011;6409;56.294;14.480;2023-07-16T14:30:13;2.70;;;2.60;;
12689;SDS011;6409;56.294;14.480;2023-07-16T14:32:39;2.67;;;2.58;;
12689;SDS011;6409;56.294;14.480;2023-07-16T14:35:08;2.70;;;2.60;;
12689;SDS011;6409;56.294;14.480;2023-07-16T14:37:38;2.90;;;2.80;;
12689;SDS011;6409;56.294;14.480;2023-07-16T14:40:05;2.60;;;2.50;;
12689;SDS011;6409;56.294;14.480;2023-07-16T14:42:34;2.60;;;2.50;;
12689;SDS011;6409;56.294;14.480;2023-07-16T14:45:01;2.78;;;2.67;;
12689;SDS011;6409;56.294;14.480;2023-07-16T14:47:30;2.50;;;2.40;;
12689;SDS011;6409;56.294;14.480;2023-07-16T14:49:57;2.50;;;2.40;;
12689;SDS011;6409;56.294;14.480;2023-07-16T14:52:24;2.60;;;2.50;;
12689;SDS011;6409;56.294;14.480;2023-07-16T14:54:52;2.50;;;2.40;;